createdAt,value
2023-11-25T00:01:07.411Z,1.33
2023-11-25T00:03:36.045Z,1.00
2023-11-25T00:06:06.349Z,1.10
2023-11-25T00:08:34.621Z,1.10
2023-11-25T00:11:04.948Z,1.10
2023-11-25T00:13:35.944Z,1.00
2023-11-25T00:16:09.651Z,1.10
2023-11-25T00:18:38.245Z,0.90
2023-11-25T00:21:07.913Z,1.33
2023-11-25T00:23:36.150Z,1.07
2023-11-25T00:26:05.147Z,1.20
2023-11-25T00:28:33.424Z,0.93
2023-11-25T00:31:01.678Z,1.07
2023-11-25T00:33:30.038Z,1.37
2023-11-25T00:35:58.230Z,1.13
2023-11-25T00:38:27.894Z,1.13
2023-11-25T00:40:56.132Z,1.37
2023-11-25T00:43:24.401Z,1.57
2023-11-25T00:45:52.708Z,1.30
2023-11-25T00:48:20.967Z,1.47
2023-11-25T00:50:50.431Z,1.50
2023-11-25T00:53:18.757Z,1.57
2023-11-25T00:55:48.813Z,1.43
2023-11-25T00:58:17.137Z,1.70
2023-11-25T01:00:45.580Z,1.57
2023-11-25T01:03:13.941Z,1.50
2023-11-25T01:05:42.232Z,1.90
2023-11-25T01:08:11.140Z,1.87
2023-11-25T01:10:39.608Z,2.13
2023-11-25T01:13:09.313Z,2.03
2023-11-25T01:15:37.533Z,1.93
2023-11-25T01:18:05.842Z,2.03
2023-11-25T01:20:34.185Z,2.47
2023-11-25T01:23:02.414Z,2.20
2023-11-25T01:25:30.631Z,2.00
2023-11-25T01:27:59.505Z,2.20
2023-11-25T01:30:29.231Z,2.23
2023-11-25T01:32:57.452Z,1.77
2023-11-25T01:35:26.016Z,1.90
2023-11-25T01:37:55.860Z,2.23
2023-11-25T01:40:24.457Z,2.10
2023-11-25T01:42:53.723Z,1.90
2023-11-25T01:45:21.968Z,1.90
2023-11-25T01:47:51.856Z,1.80
2023-11-25T01:50:21.071Z,1.80
2023-11-25T01:52:52.280Z,2.13
2023-11-25T01:55:20.589Z,1.80
2023-11-25T01:57:49.186Z,2.20
2023-11-25T02:00:19.250Z,2.00
2023-11-25T02:02:50.840Z,2.03
2023-11-25T02:05:20.591Z,2.00
2023-11-25T02:07:48.802Z,2.10
2023-11-25T02:10:17.337Z,1.70
2023-11-25T02:12:45.540Z,2.10
2023-11-25T02:15:16.190Z,1.47
2023-11-25T02:17:45.592Z,2.17
2023-11-25T02:20:15.545Z,2.00
2023-11-25T02:22:59.842Z,2.00
2023-11-25T02:25:28.876Z,1.90
2023-11-25T02:27:57.814Z,2.00
2023-11-25T02:30:26.096Z,2.03
2023-11-25T02:32:54.634Z,1.90
2023-11-25T02:35:23.184Z,1.87
2023-11-25T02:37:52.864Z,1.87
2023-11-25T02:40:21.086Z,1.90
2023-11-25T02:42:49.646Z,1.87
2023-11-25T02:45:20.412Z,1.50
2023-11-25T02:47:50.143Z,1.60
2023-11-25T02:50:20.413Z,1.40
2023-11-25T02:52:48.642Z,1.60
2023-11-25T02:55:18.408Z,1.50
2023-11-25T02:57:48.317Z,1.40
2023-11-25T03:00:29.249Z,1.60
2023-11-25T03:03:09.502Z,1.40
2023-11-25T03:05:39.341Z,1.60
2023-11-25T03:08:11.501Z,1.90
2023-11-25T03:10:44.021Z,2.53
2023-11-25T03:13:12.724Z,2.70
2023-11-25T03:15:42.261Z,2.70
2023-11-25T03:18:12.273Z,1.90
2023-11-25T03:20:41.747Z,1.40
2023-11-25T03:23:10.075Z,1.63
2023-11-25T03:25:40.554Z,2.20
2023-11-25T03:28:12.176Z,2.00
2023-11-25T03:30:42.189Z,1.80
2023-11-25T03:33:11.103Z,2.00
2023-11-25T03:35:39.757Z,1.60
2023-11-25T03:38:08.264Z,1.70
2023-11-25T03:40:36.873Z,2.00
2023-11-25T03:43:05.221Z,2.27
2023-11-25T03:45:34.815Z,1.90
2023-11-25T03:48:04.374Z,3.77
2023-11-25T03:50:32.709Z,14.80
2023-11-25T03:53:00.851Z,10.20
2023-11-25T03:55:29.859Z,2.97
2023-11-25T03:57:58.157Z,2.17
2023-11-25T04:00:27.073Z,1.70
2023-11-25T04:02:56.731Z,1.30
2023-11-25T04:05:25.246Z,1.27
2023-11-25T04:07:54.151Z,1.73
2023-11-25T04:10:22.760Z,1.30
2023-11-25T04:12:53.636Z,1.30
2023-11-25T04:15:22.940Z,1.50
2023-11-25T04:17:52.754Z,1.50
2023-11-25T04:20:30.078Z,1.33
2023-11-25T04:23:06.820Z,1.77
2023-11-25T04:25:35.947Z,1.47
2023-11-25T04:28:08.042Z,1.30
2023-11-25T04:30:37.113Z,1.50
2023-11-25T04:33:05.397Z,1.43
2023-11-25T04:35:35.029Z,1.33
2023-11-25T04:38:03.877Z,1.87
2023-11-25T04:40:32.298Z,4.00
2023-11-25T04:43:01.241Z,2.50
2023-11-25T04:45:29.493Z,1.80
2023-11-25T04:47:57.725Z,2.30
2023-11-25T04:50:27.969Z,2.27
2023-11-25T04:52:58.206Z,2.10
2023-11-25T04:55:29.367Z,2.10
2023-11-25T04:57:57.813Z,1.93
2023-11-25T05:00:26.332Z,1.97
2023-11-25T05:02:54.635Z,1.90
2023-11-25T05:05:24.636Z,1.60
2023-11-25T05:07:53.524Z,1.50
2023-11-25T05:10:23.469Z,1.80
2023-11-25T05:12:52.695Z,2.27
2023-11-25T05:15:23.730Z,2.10
2023-11-25T05:17:52.317Z,2.33
2023-11-25T05:20:20.971Z,1.93
2023-11-25T05:22:49.407Z,1.97
2023-11-25T05:25:18.040Z,2.17
2023-11-25T05:27:47.609Z,1.90
2023-11-25T05:30:16.558Z,1.77
2023-11-25T05:32:45.564Z,2.00
2023-11-25T05:35:15.622Z,2.17
2023-11-25T05:37:45.928Z,2.20
2023-11-25T05:40:16.705Z,2.60
2023-11-25T05:42:50.082Z,2.10
2023-11-25T05:45:21.800Z,2.17
2023-11-25T05:47:51.548Z,2.40
2023-11-25T05:50:22.732Z,2.67
2023-11-25T05:52:51.532Z,2.40
2023-11-25T05:55:21.681Z,2.00
2023-11-25T05:57:52.543Z,1.33
2023-11-25T06:00:24.342Z,1.40
2023-11-25T06:02:54.242Z,1.80
2023-11-25T06:05:23.122Z,1.17
2023-11-25T06:07:51.770Z,1.30
2023-11-25T06:10:20.731Z,1.23
2023-11-25T06:12:49.009Z,1.60
2023-11-25T06:15:17.591Z,1.53
2023-11-25T06:17:48.301Z,1.40
2023-11-25T06:20:16.605Z,1.20
2023-11-25T06:22:44.827Z,1.10
2023-11-25T06:25:13.338Z,1.27
2023-11-25T06:27:43.255Z,3.10
2023-11-25T06:30:13.769Z,3.60
2023-11-25T06:32:42.100Z,2.10
2023-11-25T06:35:13.493Z,1.20
2023-11-25T06:37:42.631Z,1.60
2023-11-25T06:40:14.244Z,1.60
2023-11-25T06:42:43.030Z,1.10
2023-11-25T06:45:11.834Z,1.60
2023-11-25T06:47:41.280Z,1.20
2023-11-25T06:50:12.958Z,1.47
2023-11-25T06:52:41.348Z,1.30
2023-11-25T06:55:11.122Z,1.30
2023-11-25T06:57:38.713Z,1.30
2023-11-25T07:00:10.190Z,1.00
2023-11-25T07:02:38.552Z,0.90
2023-11-25T07:05:09.064Z,1.07
2023-11-25T07:07:39.230Z,0.90
2023-11-25T07:10:11.170Z,1.00
2023-11-25T07:12:39.835Z,1.53
2023-11-25T07:15:09.354Z,1.40
2023-11-25T07:17:38.950Z,3.63
2023-11-25T07:20:13.605Z,3.10
2023-11-25T07:22:44.167Z,2.60
2023-11-25T07:25:14.220Z,2.50
2023-11-25T07:27:43.336Z,1.90
2023-11-25T07:30:12.433Z,1.40
2023-11-25T07:32:41.597Z,1.30
2023-11-25T07:35:10.311Z,1.00
2023-11-25T07:37:38.805Z,1.23
2023-11-25T07:40:15.908Z,0.90
2023-11-25T07:42:49.883Z,0.90
2023-11-25T07:45:18.663Z,0.60
2023-11-25T07:47:47.283Z,0.80
2023-11-25T07:50:17.475Z,0.70
2023-11-25T07:52:45.857Z,0.87
2023-11-25T07:55:15.813Z,1.40
2023-11-25T07:57:44.188Z,1.10
2023-11-25T08:00:17.075Z,0.70
2023-11-25T08:02:46.272Z,0.60
2023-11-25T08:05:23.698Z,0.70
2023-11-25T08:07:53.448Z,0.60
2023-11-25T08:10:25.771Z,0.70
2023-11-25T08:12:54.878Z,0.80
2023-11-25T08:15:23.779Z,1.00
2023-11-25T08:17:52.027Z,0.80
2023-11-25T08:20:22.210Z,1.00
2023-11-25T08:22:50.606Z,0.70
2023-11-25T08:25:20.021Z,0.70
2023-11-25T08:27:52.771Z,1.30
2023-11-25T08:30:22.401Z,1.40
2023-11-25T08:32:50.837Z,0.60
2023-11-25T08:35:19.248Z,0.63
2023-11-25T08:37:49.349Z,0.70
2023-11-25T08:40:18.675Z,0.80
2023-11-25T08:42:47.618Z,0.80
2023-11-25T08:45:17.573Z,0.70
2023-11-25T08:47:45.911Z,0.80
2023-11-25T08:50:17.761Z,0.60
2023-11-25T08:52:50.053Z,0.80
2023-11-25T08:55:21.381Z,0.60
2023-11-25T08:57:50.389Z,0.67
2023-11-25T09:00:21.724Z,0.80
2023-11-25T09:02:52.740Z,0.70
2023-11-25T09:05:23.676Z,0.70
2023-11-25T09:07:53.182Z,0.70
2023-11-25T09:10:22.546Z,0.50
2023-11-25T09:12:52.453Z,0.73
2023-11-25T09:15:22.827Z,0.83
2023-11-25T09:17:52.503Z,0.70
2023-11-25T09:20:22.293Z,0.63
2023-11-25T09:22:50.725Z,0.60
2023-11-25T09:25:19.584Z,0.70
2023-11-25T09:27:48.823Z,0.57
2023-11-25T09:30:19.449Z,0.90
2023-11-25T09:32:49.234Z,1.07
2023-11-25T09:35:17.546Z,0.50
2023-11-25T09:37:46.658Z,0.80
2023-11-25T09:40:16.922Z,0.70
2023-11-25T09:42:48.178Z,0.50
2023-11-25T09:45:17.285Z,0.60
2023-11-25T09:47:46.734Z,0.77
2023-11-25T09:50:16.528Z,0.50
2023-11-25T09:52:53.086Z,0.67
2023-11-25T09:55:24.292Z,0.60
2023-11-25T09:57:59.325Z,0.40
2023-11-25T10:00:28.681Z,0.67
2023-11-25T10:02:59.675Z,0.73
2023-11-25T10:05:31.365Z,0.90
2023-11-25T10:08:01.085Z,0.60
2023-11-25T10:10:30.763Z,0.40
2023-11-25T10:12:59.187Z,0.67
2023-11-25T10:15:27.394Z,0.60
2023-11-25T10:17:56.584Z,0.70
2023-11-25T10:20:24.964Z,1.10
2023-11-25T10:22:58.060Z,0.80
2023-11-25T10:25:28.772Z,0.70
2023-11-25T10:27:57.364Z,0.50
2023-11-25T10:30:26.332Z,0.70
2023-11-25T10:32:58.194Z,1.03
2023-11-25T10:35:26.876Z,0.90
2023-11-25T10:37:56.839Z,1.10
2023-11-25T10:40:26.542Z,0.57
2023-11-25T10:42:55.058Z,0.57
2023-11-25T10:45:28.300Z,0.73
2023-11-25T10:47:58.562Z,0.60
2023-11-25T10:50:27.830Z,0.63
2023-11-25T10:52:59.628Z,0.53
2023-11-25T10:55:30.288Z,0.33
2023-11-25T10:58:01.767Z,0.70
2023-11-25T11:00:31.959Z,0.50
2023-11-25T11:03:06.100Z,0.60
2023-11-25T11:05:42.765Z,0.77
2023-11-25T11:08:18.506Z,0.57
2023-11-25T11:10:55.781Z,0.40
2023-11-25T11:13:28.466Z,0.60
2023-11-25T11:16:01.706Z,0.60
2023-11-25T11:18:36.995Z,0.67
2023-11-25T11:21:10.273Z,0.50
2023-11-25T11:23:40.259Z,0.53
2023-11-25T11:26:21.248Z,0.57
2023-11-25T11:28:55.842Z,0.50
2023-11-25T11:31:58.570Z,0.70
2023-11-25T11:34:28.960Z,0.60
2023-11-25T11:36:57.510Z,0.37
2023-11-25T11:39:40.090Z,0.67
2023-11-25T11:42:28.884Z,0.70
2023-11-25T11:45:12.954Z,0.53
2023-11-25T11:47:42.236Z,0.80
2023-11-25T11:50:10.930Z,0.50
2023-11-25T11:52:47.238Z,0.40
2023-11-25T11:55:37.053Z,0.50
2023-11-25T11:58:06.986Z,0.50
2023-11-25T12:00:43.033Z,0.63
2023-11-25T12:03:11.489Z,0.43
2023-11-25T12:05:40.447Z,0.57
2023-11-25T12:08:09.096Z,0.53
2023-11-25T12:10:40.058Z,0.60
2023-11-25T12:13:10.106Z,0.70
2023-11-25T12:15:38.487Z,0.70
2023-11-25T12:18:07.801Z,0.53
2023-11-25T12:20:36.108Z,0.60
2023-11-25T12:23:10.054Z,0.40
2023-11-25T12:25:40.581Z,0.40
2023-11-25T12:28:10.549Z,0.60
2023-11-25T12:30:39.733Z,0.40
2023-11-25T12:33:08.620Z,0.60
2023-11-25T12:35:37.099Z,0.60
2023-11-25T12:38:14.405Z,0.57
2023-11-25T12:40:47.611Z,0.50
2023-11-25T12:43:16.041Z,0.70
2023-11-25T12:45:46.836Z,0.60
2023-11-25T12:48:20.642Z,0.50
2023-11-25T12:51:04.801Z,0.57
2023-11-25T12:53:33.380Z,0.70
2023-11-25T12:56:03.626Z,0.70
2023-11-25T12:58:32.444Z,0.70
2023-11-25T13:01:01.023Z,0.70
2023-11-25T13:03:32.646Z,1.10
2023-11-25T13:06:01.935Z,0.53
2023-11-25T13:08:33.213Z,0.70
2023-11-25T13:11:05.220Z,0.80
2023-11-25T13:13:34.490Z,0.50
2023-11-25T13:16:05.445Z,0.73
2023-11-25T13:18:34.233Z,0.60
2023-11-25T13:21:08.271Z,0.60
2023-11-25T13:23:36.754Z,0.73
2023-11-25T13:26:07.121Z,0.63
2023-11-25T13:28:35.558Z,0.70
2023-11-25T13:31:03.982Z,0.40
2023-11-25T13:33:32.294Z,0.60
2023-11-25T13:36:00.599Z,0.70
2023-11-25T13:38:28.884Z,0.60
2023-11-25T13:40:57.959Z,0.73
2023-11-25T13:43:27.615Z,0.60
2023-11-25T13:45:55.801Z,0.53
2023-11-25T13:48:24.057Z,0.57
2023-11-25T13:50:52.277Z,0.50
2023-11-25T13:53:20.544Z,0.63
2023-11-25T13:55:50.106Z,0.87
2023-11-25T13:58:18.517Z,0.60
2023-11-25T14:00:48.113Z,0.70
2023-11-25T14:03:17.430Z,0.63
2023-11-25T14:05:47.473Z,0.60
2023-11-25T14:08:19.948Z,0.63
2023-11-25T14:10:48.423Z,0.70
2023-11-25T14:13:19.389Z,0.73
2023-11-25T14:15:49.096Z,0.90
2023-11-25T14:18:17.723Z,0.90
2023-11-25T14:20:46.217Z,0.80
2023-11-25T14:23:16.214Z,0.60
2023-11-25T14:25:44.725Z,0.80
2023-11-25T14:28:14.611Z,0.90
2023-11-25T14:30:42.829Z,0.90
2023-11-25T14:33:12.631Z,0.87
2023-11-25T14:35:41.317Z,0.70
2023-11-25T14:38:09.758Z,0.80
2023-11-25T14:40:40.354Z,1.23
2023-11-25T14:43:09.354Z,0.80
2023-11-25T14:45:37.823Z,0.80
2023-11-25T14:48:08.796Z,1.00
2023-11-25T14:50:42.299Z,0.83
2023-11-25T14:53:13.375Z,0.70
2023-11-25T14:55:43.877Z,1.30
2023-11-25T14:58:12.869Z,0.90
2023-11-25T15:00:42.162Z,0.80
2023-11-25T15:03:11.248Z,1.00
2023-11-25T15:05:40.953Z,0.90
2023-11-25T15:08:09.270Z,1.10
2023-11-25T15:10:38.028Z,0.90
2023-11-25T15:13:07.010Z,0.87
2023-11-25T15:15:35.506Z,0.90
2023-11-25T15:18:04.118Z,0.90
2023-11-25T15:20:32.403Z,0.90
2023-11-25T15:23:05.029Z,0.90
2023-11-25T15:25:33.782Z,0.87
2023-11-25T15:28:02.850Z,1.00
2023-11-25T15:30:31.211Z,1.10
2023-11-25T15:33:00.858Z,0.90
2023-11-25T15:35:29.277Z,1.00
2023-11-25T15:37:57.578Z,1.00
2023-11-25T15:40:27.283Z,0.97
2023-11-25T15:42:55.845Z,1.27
2023-11-25T15:45:24.661Z,1.10
2023-11-25T15:47:53.058Z,1.30
2023-11-25T15:50:21.358Z,1.00
2023-11-25T15:52:50.249Z,1.03
2023-11-25T15:55:18.621Z,0.90
2023-11-25T15:57:48.249Z,1.00
2023-11-25T16:00:17.955Z,1.00
2023-11-25T16:02:46.763Z,1.10
2023-11-25T16:05:16.330Z,1.00
2023-11-25T16:07:45.603Z,1.10
2023-11-25T16:10:14.852Z,1.40
2023-11-25T16:12:43.210Z,1.13
2023-11-25T16:15:14.760Z,1.13
2023-11-25T16:17:43.041Z,1.30
2023-11-25T16:20:17.039Z,1.97
2023-11-25T16:22:45.441Z,0.90
2023-11-25T16:25:14.414Z,1.03
2023-11-25T16:27:42.866Z,1.20
2023-11-25T16:30:16.453Z,1.30
2023-11-25T16:32:45.463Z,1.30
2023-11-25T16:35:16.970Z,1.10
2023-11-25T16:37:45.648Z,1.23
2023-11-25T16:40:15.124Z,1.00
2023-11-25T16:42:43.706Z,1.00
2023-11-25T16:45:13.407Z,1.50
2023-11-25T16:47:41.738Z,1.13
2023-11-25T16:50:10.936Z,1.07
2023-11-25T16:52:39.857Z,1.20
2023-11-25T16:55:09.024Z,1.30
2023-11-25T16:57:37.866Z,1.10
2023-11-25T17:00:08.309Z,1.10
2023-11-25T17:02:38.188Z,1.03
2023-11-25T17:05:09.476Z,1.10
2023-11-25T17:07:38.361Z,1.10
2023-11-25T17:10:08.271Z,1.10
2023-11-25T17:12:36.909Z,1.03
2023-11-25T17:15:06.591Z,1.30
2023-11-25T17:17:35.050Z,1.20
2023-11-25T17:20:07.650Z,1.20
2023-11-25T17:22:36.436Z,1.50
2023-11-25T17:25:06.282Z,1.20
2023-11-25T17:27:34.765Z,1.10
2023-11-25T17:30:03.169Z,1.23
2023-11-25T17:32:31.460Z,1.90
2023-11-25T17:35:00.983Z,2.10
2023-11-25T17:37:30.764Z,2.20
2023-11-25T17:39:59.017Z,1.60
2023-11-25T17:42:27.574Z,1.60
2023-11-25T17:44:55.875Z,1.60
2023-11-25T17:47:24.395Z,1.60
2023-11-25T17:49:52.777Z,1.20
2023-11-25T17:52:21.382Z,1.40
2023-11-25T17:54:51.109Z,1.73
2023-11-25T17:57:19.690Z,1.57
2023-11-25T17:59:48.388Z,1.50
2023-11-25T18:02:17.105Z,1.50
2023-11-25T18:04:45.642Z,1.43
2023-11-25T18:07:13.961Z,1.63
2023-11-25T18:09:42.514Z,1.90
2023-11-25T18:12:12.263Z,1.50
2023-11-25T18:14:40.763Z,1.60
2023-11-25T18:17:09.139Z,1.57
2023-11-25T18:19:37.559Z,1.37
2023-11-25T18:22:06.297Z,1.60
2023-11-25T18:24:34.608Z,1.90
2023-11-25T18:27:02.960Z,1.83
2023-11-25T18:29:32.883Z,2.37
2023-11-25T18:32:01.775Z,1.27
2023-11-25T18:34:31.187Z,2.00
2023-11-25T18:36:59.685Z,1.70
2023-11-25T18:39:29.734Z,1.77
2023-11-25T18:41:58.425Z,1.80
2023-11-25T18:44:26.926Z,1.40
2023-11-25T18:46:56.702Z,1.60
2023-11-25T18:49:25.045Z,1.40
2023-11-25T18:51:53.640Z,1.10
2023-11-25T18:54:23.130Z,1.20
2023-11-25T18:56:52.802Z,1.33
2023-11-25T18:59:21.397Z,1.30
2023-11-25T19:01:51.990Z,1.40
2023-11-25T19:04:23.874Z,1.27
2023-11-25T19:06:52.572Z,1.73
2023-11-25T19:09:22.209Z,1.57
2023-11-25T19:11:51.004Z,1.30
2023-11-25T19:14:19.459Z,1.50
2023-11-25T19:16:48.580Z,1.40
2023-11-25T19:19:17.091Z,1.50
2023-11-25T19:21:47.520Z,1.57
2023-11-25T19:24:16.459Z,1.63
2023-11-25T19:26:45.333Z,2.33
2023-11-25T19:29:15.578Z,1.83
2023-11-25T19:31:44.592Z,1.37
2023-11-25T19:34:13.264Z,1.70
2023-11-25T19:36:42.545Z,1.10
2023-11-25T19:39:12.515Z,1.40
2023-11-25T19:41:40.818Z,1.20
2023-11-25T19:44:09.146Z,1.30
2023-11-25T19:46:37.967Z,1.30
2023-11-25T19:49:06.422Z,1.77
2023-11-25T19:51:35.118Z,1.00
2023-11-25T19:54:03.795Z,1.37
2023-11-25T19:56:36.277Z,1.27
2023-11-25T19:59:04.928Z,1.60
2023-11-25T20:01:35.763Z,1.60
2023-11-25T20:04:06.946Z,1.87
2023-11-25T20:06:36.034Z,1.90
2023-11-25T20:09:04.772Z,3.23
2023-11-25T20:11:34.878Z,3.07
2023-11-25T20:14:04.309Z,3.10
2023-11-25T20:16:36.205Z,3.83
2023-11-25T20:19:04.926Z,2.97
2023-11-25T20:21:34.662Z,1.40
2023-11-25T20:24:05.241Z,1.20
2023-11-25T20:26:38.317Z,1.20
2023-11-25T20:29:09.062Z,1.10
2023-11-25T20:31:39.592Z,1.20
2023-11-25T20:34:10.177Z,1.30
2023-11-25T20:36:39.555Z,1.10
2023-11-25T20:39:09.539Z,1.07
2023-11-25T20:41:40.327Z,1.00
2023-11-25T20:44:11.322Z,0.93
2023-11-25T20:46:39.659Z,1.10
2023-11-25T20:49:08.609Z,1.00
2023-11-25T20:51:37.255Z,1.00
2023-11-25T20:54:06.074Z,0.80
2023-11-25T20:56:34.427Z,1.03
2023-11-25T20:59:04.185Z,1.00
2023-11-25T21:01:32.759Z,1.30
2023-11-25T21:04:01.218Z,2.23
2023-11-25T21:06:30.578Z,4.47
2023-11-25T21:08:59.000Z,4.30
2023-11-25T21:11:27.548Z,4.30
2023-11-25T21:13:55.906Z,4.20
2023-11-25T21:16:25.647Z,5.10
2023-11-25T21:18:54.217Z,4.00
2023-11-25T21:21:22.395Z,4.00
2023-11-25T21:23:50.810Z,3.70
2023-11-25T21:26:20.046Z,3.10
2023-11-25T21:28:48.368Z,2.80
2023-11-25T21:31:16.651Z,2.80
2023-11-25T21:33:46.511Z,1.73
2023-11-25T21:36:14.692Z,1.90
2023-11-25T21:38:43.522Z,2.27
2023-11-25T21:41:11.896Z,2.20
2023-11-25T21:43:40.381Z,2.10
2023-11-25T21:46:09.560Z,1.50
2023-11-25T21:48:38.581Z,1.80
2023-11-25T21:51:10.200Z,1.83
2023-11-25T21:53:38.557Z,1.80
2023-11-25T21:56:07.744Z,1.87
2023-11-25T21:58:36.025Z,1.60
2023-11-25T22:01:05.354Z,1.43
2023-11-25T22:03:35.725Z,1.40
2023-11-25T22:06:05.301Z,1.60
2023-11-25T22:08:35.026Z,1.23
2023-11-25T22:11:03.605Z,1.40
2023-11-25T22:13:32.858Z,1.50
2023-11-25T22:16:03.119Z,1.40
2023-11-25T22:18:31.481Z,1.70
2023-11-25T22:20:59.749Z,1.50
2023-11-25T22:23:28.313Z,1.40
2023-11-25T22:26:06.090Z,1.73
2023-11-25T22:28:34.301Z,1.50
2023-11-25T22:31:02.548Z,1.67
2023-11-25T22:33:30.933Z,1.87
2023-11-25T22:35:59.577Z,1.70
2023-11-25T22:38:28.532Z,2.73
2023-11-25T22:40:58.177Z,2.40
2023-11-25T22:43:26.442Z,2.30
2023-11-25T22:45:54.658Z,2.27
2023-11-25T22:48:22.941Z,2.20
2023-11-25T22:50:51.138Z,2.10
2023-11-25T22:53:19.366Z,2.20
2023-11-25T22:55:51.921Z,2.20
2023-11-25T22:58:21.599Z,2.43
2023-11-25T23:00:53.704Z,2.20
2023-11-25T23:03:22.713Z,2.10
2023-11-25T23:05:51.127Z,2.30
2023-11-25T23:08:21.213Z,2.00
2023-11-25T23:10:49.551Z,2.00
2023-11-25T23:13:18.059Z,2.10
2023-11-25T23:15:47.851Z,2.20
2023-11-25T23:18:16.097Z,2.00
2023-11-25T23:20:44.382Z,2.43
2023-11-25T23:23:13.134Z,2.63
2023-11-25T23:25:41.474Z,2.50
2023-11-25T23:28:09.778Z,2.60
2023-11-25T23:30:42.001Z,2.50
2023-11-25T23:33:11.814Z,2.70
2023-11-25T23:35:40.038Z,2.10
2023-11-25T23:38:08.460Z,2.43
2023-11-25T23:40:37.149Z,2.43
2023-11-25T23:43:05.570Z,2.43
2023-11-25T23:45:34.051Z,2.90
2023-11-25T23:48:02.363Z,3.30
2023-11-25T23:50:32.536Z,3.67
2023-11-25T23:53:00.844Z,3.73
2023-11-25T23:55:29.348Z,4.33
2023-11-25T23:57:57.574Z,4.30
